createdAt,value
2018-07-01T00:01:51.517Z,52.00
2018-07-01T00:04:18.401Z,52.00
2018-07-01T00:06:45.328Z,52.20
2018-07-01T00:09:12.209Z,52.40
2018-07-01T00:11:39.136Z,52.30
2018-07-01T00:14:06.021Z,52.40
2018-07-01T00:16:33.008Z,52.70
2018-07-01T00:18:59.872Z,52.70
2018-07-01T00:21:26.789Z,52.70
2018-07-01T00:23:54.404Z,52.90
2018-07-01T00:26:21.397Z,52.90
2018-07-01T00:28:48.989Z,53.70
2018-07-01T00:31:15.949Z,53.00
2018-07-01T00:33:42.881Z,53.00
2018-07-01T00:36:09.832Z,52.90
2018-07-01T00:38:36.699Z,53.20
2018-07-01T00:41:03.613Z,53.30
2018-07-01T00:43:30.472Z,54.10
2018-07-01T00:45:57.389Z,53.50
2018-07-01T00:48:25.041Z,53.90
2018-07-01T00:50:52.016Z,53.80
2018-07-01T00:53:18.881Z,53.80
2018-07-01T00:55:45.842Z,54.00
2018-07-01T00:58:12.708Z,53.90
2018-07-01T01:00:39.690Z,53.90
2018-07-01T01:03:07.293Z,54.10
2018-07-01T01:05:34.205Z,54.10
2018-07-01T01:08:01.824Z,54.50
2018-07-01T01:10:28.837Z,54.30
2018-07-01T01:12:55.749Z,54.60
2018-07-01T01:15:23.464Z,54.50
2018-07-01T01:17:50.328Z,54.50
2018-07-01T01:20:17.285Z,54.70
2018-07-01T01:22:44.143Z,54.80
2018-07-01T01:25:11.132Z,55.00
2018-07-01T01:27:38.023Z,55.00
2018-07-01T01:30:05.696Z,55.40
2018-07-01T01:32:33.417Z,55.40
2018-07-01T01:35:00.344Z,55.50
2018-07-01T01:37:27.353Z,55.70
2018-07-01T01:40:07.544Z,55.80
2018-07-01T01:42:52.781Z,55.80
2018-07-01T01:45:35.036Z,55.80
2018-07-01T01:48:14.894Z,55.90
2018-07-01T01:50:58.264Z,56.00
2018-07-01T01:56:26.498Z,56.20
2018-07-01T01:59:08.108Z,56.50
2018-07-01T02:01:53.265Z,56.50
2018-07-01T02:04:35.335Z,56.60
2018-07-01T02:07:19.733Z,56.70
2018-07-01T02:10:02.241Z,57.50
2018-07-01T02:12:42.209Z,56.90
2018-07-01T02:15:22.335Z,57.00
2018-07-01T02:18:06.878Z,57.70
2018-07-01T02:20:49.089Z,57.10
2018-07-01T02:23:30.607Z,57.90
2018-07-01T02:26:11.934Z,57.30
2018-07-01T02:28:53.511Z,57.40
2018-07-01T02:31:38.721Z,57.60
2018-07-01T02:34:18.685Z,57.10
2018-07-01T02:36:59.938Z,57.50
2018-07-01T02:39:40.846Z,57.80
2018-07-01T02:42:22.859Z,56.90
2018-07-01T02:45:02.421Z,57.00
2018-07-01T02:47:41.204Z,57.30
2018-07-01T02:50:24.007Z,58.00
2018-07-01T02:53:06.546Z,57.80
2018-07-01T02:55:45.856Z,57.70
2018-07-01T02:58:25.972Z,57.80
2018-07-01T03:01:05.989Z,57.90
2018-07-01T03:03:47.729Z,57.90
2018-07-01T03:06:28.076Z,58.00
2018-07-01T03:09:07.251Z,58.10
2018-07-01T03:11:50.791Z,58.40
2018-07-01T03:14:31.726Z,58.20
2018-07-01T03:17:13.681Z,58.10
2018-07-01T03:19:53.400Z,58.40
2018-07-01T03:22:35.833Z,58.50
2018-07-01T03:25:15.687Z,58.40
2018-07-01T03:27:56.619Z,58.20
2018-07-01T03:30:36.755Z,58.20
2018-07-01T03:33:19.664Z,58.40
2018-07-01T03:36:01.161Z,58.40
2018-07-01T03:38:41.743Z,58.60
2018-07-01T03:41:21.324Z,58.60
2018-07-01T03:44:01.692Z,58.80
2018-07-01T03:46:42.031Z,58.90
2018-07-01T03:49:27.713Z,58.80
2018-07-01T03:52:08.422Z,58.80
2018-07-01T03:54:51.228Z,59.10
2018-07-01T03:57:31.751Z,58.80
2018-07-01T04:00:11.812Z,58.90
2018-07-01T04:02:51.838Z,58.90
2018-07-01T04:08:17.391Z,59.10
2018-07-01T04:10:55.564Z,59.30
2018-07-01T04:13:38.492Z,59.40
2018-07-01T04:16:18.536Z,59.20
2018-07-01T04:19:02.741Z,59.50
2018-07-01T04:21:42.197Z,59.30
2018-07-01T04:24:25.284Z,59.10
2018-07-01T04:29:52.476Z,59.40
2018-07-01T04:32:24.691Z,59.40
2018-07-01T04:35:05.381Z,59.30
2018-07-01T04:37:47.721Z,58.90
2018-07-01T04:40:29.628Z,58.90
2018-07-01T04:43:07.825Z,57.10
2018-07-01T04:45:48.187Z,55.60
2018-07-01T04:49:45.186Z,55.00
2018-07-01T04:52:26.303Z,54.40
2018-07-01T04:55:09.994Z,54.40
2018-07-01T04:57:48.558Z,53.50
2018-07-01T05:00:30.607Z,53.50
2018-07-01T05:03:10.916Z,52.20
2018-07-01T05:05:51.687Z,52.10
2018-07-01T05:08:31.101Z,52.10
2018-07-01T05:11:13.402Z,51.30
2018-07-01T05:16:36.964Z,45.60
2018-07-01T05:19:18.231Z,43.90
2018-07-01T05:21:58.311Z,44.80
2018-07-01T05:24:34.033Z,43.80
2018-07-01T05:27:13.344Z,41.50
2018-07-01T05:29:52.960Z,41.30
2018-07-01T05:32:36.591Z,40.60
2018-07-01T05:35:20.533Z,40.80
2018-07-01T05:38:02.125Z,45.80
2018-07-01T05:40:43.832Z,45.70
2018-07-01T05:46:02.647Z,49.70
2018-07-01T05:48:42.374Z,52.30
2018-07-01T05:51:24.784Z,52.40
2018-07-01T05:54:04.569Z,52.60
2018-07-01T05:56:44.637Z,53.30
2018-07-01T06:02:11.078Z,53.90
2018-07-01T06:04:53.456Z,53.80
2018-07-01T06:07:33.689Z,53.10
2018-07-01T06:10:15.769Z,53.40
2018-07-01T06:12:52.475Z,53.60
2018-07-01T06:15:34.175Z,54.10
2018-07-01T06:18:15.749Z,54.10
2018-07-01T06:20:58.527Z,53.90
2018-07-01T06:23:40.012Z,53.90
2018-07-01T06:26:22.226Z,54.50
2018-07-01T06:29:03.063Z,55.00
2018-07-01T06:31:43.884Z,54.30
2018-07-01T06:37:07.878Z,54.50
2018-07-01T06:39:49.226Z,54.50
2018-07-01T06:42:32.378Z,54.10
2018-07-01T06:45:13.643Z,54.10
2018-07-01T06:47:54.512Z,53.70
2018-07-01T06:50:37.549Z,53.10
2018-07-01T06:53:19.748Z,53.10
2018-07-01T06:56:01.551Z,52.70
2018-07-01T06:58:42.465Z,53.70
2018-07-01T07:01:24.870Z,52.80
2018-07-01T07:06:50.227Z,52.20
2018-07-01T07:09:30.631Z,52.90
2018-07-01T07:12:09.500Z,52.50
2018-07-01T07:14:49.177Z,52.50
2018-07-01T07:17:30.616Z,52.60
2018-07-01T07:20:10.355Z,52.10
2018-07-01T07:22:51.923Z,52.00
2018-07-01T07:25:34.681Z,51.80
2018-07-01T07:28:15.334Z,51.80
2018-07-01T07:30:57.310Z,51.40
2018-07-01T07:33:39.547Z,50.50
2018-07-01T07:36:22.712Z,51.00
2018-07-01T07:39:03.125Z,51.20
2018-07-01T07:41:44.986Z,51.20
2018-07-01T07:47:10.415Z,50.00
2018-07-01T07:49:52.084Z,49.30
2018-07-01T07:52:35.149Z,48.90
2018-07-01T07:55:15.178Z,48.10
2018-07-01T07:57:55.838Z,47.50
2018-07-01T08:00:35.435Z,47.20
2018-07-01T08:03:14.649Z,47.30
2018-07-01T08:08:36.459Z,47.80
2018-07-01T08:11:16.711Z,46.50
2018-07-01T08:13:57.038Z,46.80
2018-07-01T08:16:41.422Z,46.80
2018-07-01T08:22:04.209Z,46.50
2018-07-01T08:27:28.784Z,47.90
2018-07-01T08:30:08.670Z,45.50
2018-07-01T08:32:48.997Z,44.50
2018-07-01T08:38:11.957Z,43.10
2018-07-01T08:43:31.064Z,41.00
2018-07-01T08:46:10.057Z,41.30
2018-07-01T08:48:50.792Z,41.20
2018-07-01T08:51:29.413Z,41.60
2018-07-01T08:54:08.333Z,40.30
2018-07-01T08:56:48.780Z,38.50
2018-07-01T08:59:31.192Z,40.60
2018-07-01T09:02:12.488Z,38.40
2018-07-01T09:04:52.483Z,38.40
2018-07-01T09:07:30.485Z,38.80
2018-07-01T09:10:09.718Z,38.80
2018-07-01T09:12:52.494Z,41.30
2018-07-01T09:15:33.210Z,41.20
2018-07-01T09:18:12.247Z,42.50
2018-07-01T09:20:53.657Z,41.90
2018-07-01T09:26:17.368Z,42.00
2018-07-01T09:28:59.017Z,42.40
2018-07-01T09:31:39.797Z,42.70
2018-07-01T09:34:22.781Z,42.60
2018-07-01T09:37:04.095Z,41.30
2018-07-01T09:39:41.926Z,42.60
2018-07-01T09:42:22.129Z,41.50
2018-07-01T09:44:59.812Z,43.60
2018-07-01T09:47:41.851Z,42.90
2018-07-01T09:50:23.613Z,42.90
2018-07-01T09:53:04.571Z,40.90
2018-07-01T09:55:44.625Z,41.10
2018-07-01T09:58:28.783Z,39.60
2018-07-01T10:01:08.365Z,39.60
2018-07-01T10:03:50.327Z,40.70
2018-07-01T10:06:30.809Z,40.80
2018-07-01T10:09:13.666Z,41.00
2018-07-01T10:11:53.016Z,41.00
2018-07-01T10:14:34.444Z,41.30
2018-07-01T10:17:15.802Z,40.20
2018-07-01T10:19:59.540Z,40.40
2018-07-01T10:22:40.534Z,41.60
2018-07-01T10:25:21.627Z,42.40
2018-07-01T10:28:01.366Z,40.40
2018-07-01T10:30:39.441Z,38.30
2018-07-01T10:33:18.957Z,38.30
2018-07-01T10:35:57.834Z,40.20
2018-07-01T10:38:37.460Z,40.00
2018-07-01T10:41:16.978Z,41.40
2018-07-01T10:43:57.879Z,41.80
2018-07-01T10:49:21.167Z,42.70
2018-07-01T10:52:00.041Z,40.80
2018-07-01T10:54:41.328Z,40.60
2018-07-01T10:57:22.625Z,39.90
2018-07-01T11:00:05.444Z,40.50
2018-07-01T11:02:45.010Z,42.40
2018-07-01T11:05:26.906Z,41.80
2018-07-01T11:08:07.883Z,41.90
2018-07-01T11:10:54.813Z,41.50
2018-07-01T11:16:19.357Z,40.50
2018-07-01T11:21:48.252Z,42.60
2018-07-01T11:24:30.417Z,43.10
2018-07-01T11:27:06.730Z,41.80
2018-07-01T11:29:48.641Z,42.50
2018-07-01T11:32:27.043Z,41.50
2018-07-01T11:35:08.303Z,42.00
2018-07-01T11:37:47.979Z,41.30
2018-07-01T11:40:28.013Z,41.50
2018-07-01T11:43:07.441Z,40.70
2018-07-01T11:45:44.325Z,42.10
2018-07-01T11:48:24.052Z,41.60
2018-07-01T11:51:04.585Z,41.80
2018-07-01T11:56:23.361Z,41.70
2018-07-01T11:59:04.392Z,40.90
2018-07-01T12:01:40.694Z,40.90
2018-07-01T12:04:19.840Z,40.90
2018-07-01T12:06:58.129Z,40.90
2018-07-01T12:12:21.864Z,41.00
2018-07-01T12:15:01.951Z,40.80
2018-07-01T12:20:26.108Z,41.80
2018-07-01T12:23:06.103Z,41.00
2018-07-01T12:25:43.028Z,40.20
2018-07-01T12:28:20.485Z,40.00
2018-07-01T12:30:58.676Z,40.60
2018-07-01T12:33:37.679Z,40.60
2018-07-01T12:36:19.058Z,40.20
2018-07-01T12:39:00.354Z,40.30
2018-07-01T12:41:41.804Z,41.40
2018-07-01T12:44:24.279Z,41.80
2018-07-01T12:47:01.294Z,41.40
2018-07-01T12:49:40.075Z,42.00
2018-07-01T12:52:19.814Z,40.00
2018-07-01T12:54:47.484Z,40.80
2018-07-01T12:57:15.184Z,41.20
2018-07-01T12:59:43.907Z,41.10
2018-07-01T13:02:10.846Z,42.00
2018-07-01T13:04:37.729Z,41.00
2018-07-01T13:07:04.714Z,41.40
2018-07-01T13:12:24.209Z,42.00
2018-07-01T13:15:04.489Z,40.70
2018-07-01T13:17:45.168Z,41.10
2018-07-01T13:20:26.711Z,41.10
2018-07-01T13:22:55.617Z,40.40
2018-07-01T13:25:22.588Z,40.50
2018-07-01T13:27:49.481Z,40.90
2018-07-01T13:30:17.165Z,39.90
2018-07-01T13:32:44.044Z,39.90
2018-07-01T13:35:25.751Z,40.60
2018-07-01T13:38:11.043Z,41.10
2018-07-01T13:40:38.948Z,41.10
2018-07-01T13:43:05.833Z,40.20
2018-07-01T13:45:32.825Z,40.80
2018-07-01T13:47:59.715Z,40.50
2018-07-01T13:50:26.692Z,40.80
2018-07-01T13:52:54.347Z,41.10
2018-07-01T13:55:21.257Z,40.80
2018-07-01T13:57:48.234Z,40.70
2018-07-01T14:00:15.209Z,40.80
2018-07-01T14:02:42.180Z,40.70
2018-07-01T14:05:09.156Z,40.70
2018-07-01T14:07:36.155Z,40.30
2018-07-01T14:10:03.854Z,41.20
2018-07-01T14:12:30.829Z,41.10
2018-07-01T14:14:57.767Z,40.20
2018-07-01T14:17:25.137Z,39.90
2018-07-01T14:19:52.168Z,40.40
2018-07-01T14:22:20.132Z,40.80
2018-07-01T14:24:49.509Z,39.90
2018-07-01T14:27:27.455Z,39.90
2018-07-01T14:29:55.734Z,40.80
2018-07-01T14:32:36.144Z,39.70
2018-07-01T14:35:18.519Z,40.20
2018-07-01T14:38:00.295Z,39.60
2018-07-01T14:40:27.990Z,40.50
2018-07-01T14:42:55.660Z,41.60
2018-07-01T14:45:23.260Z,41.30
2018-07-01T14:47:50.206Z,41.30
2018-07-01T14:50:32.029Z,40.20
2018-07-01T14:53:15.377Z,38.20
2018-07-01T14:55:57.793Z,38.20
2018-07-01T14:58:40.841Z,38.90
2018-07-01T15:01:22.852Z,39.20
2018-07-01T15:04:03.698Z,39.00
2018-07-01T15:06:32.822Z,40.60
2018-07-01T15:08:59.744Z,40.60
2018-07-01T15:11:27.441Z,39.60
2018-07-01T15:13:54.356Z,39.60
2018-07-01T15:16:35.184Z,39.70
2018-07-01T15:19:17.707Z,39.10
2018-07-01T15:21:59.307Z,39.60
2018-07-01T15:24:40.154Z,39.20
2018-07-01T15:27:07.874Z,39.20
2018-07-01T15:29:34.780Z,39.80
2018-07-01T15:32:01.729Z,39.60
2018-07-01T15:34:28.599Z,39.00
2018-07-01T15:36:56.273Z,39.80
2018-07-01T15:39:36.349Z,39.80
2018-07-01T15:42:19.064Z,39.60
2018-07-01T15:45:00.187Z,38.70
2018-07-01T15:47:39.129Z,38.70
2018-07-01T15:53:04.072Z,40.50
2018-07-01T15:55:44.101Z,39.90
2018-07-01T15:58:16.340Z,39.60
2018-07-01T16:00:43.520Z,40.10
2018-07-01T16:03:11.326Z,39.30
2018-07-01T16:05:41.656Z,39.20
2018-07-01T16:08:10.269Z,39.90
2018-07-01T16:10:45.409Z,39.70
2018-07-01T16:13:18.912Z,39.00
2018-07-01T16:15:48.387Z,40.40
2018-07-01T16:18:15.633Z,38.50
2018-07-01T16:20:42.549Z,38.90
2018-07-01T16:23:10.218Z,39.70
2018-07-01T16:25:37.114Z,39.70
2018-07-01T16:28:04.237Z,39.70
2018-07-01T16:30:44.223Z,40.60
2018-07-01T16:33:11.538Z,39.80
2018-07-01T16:35:38.478Z,39.30
2018-07-01T16:38:05.499Z,39.20
2018-07-01T16:40:38.822Z,39.10
2018-07-01T16:43:06.562Z,39.10
2018-07-01T16:45:40.859Z,38.60
2018-07-01T16:48:08.213Z,38.60
2018-07-01T16:50:35.088Z,38.50
2018-07-01T16:53:03.500Z,39.10
2018-07-01T16:55:37.509Z,39.10
2018-07-01T16:58:04.661Z,37.90
2018-07-01T17:00:31.720Z,38.20
2018-07-01T17:02:59.602Z,38.90
2018-07-01T17:05:26.731Z,39.00
2018-07-01T17:08:04.766Z,38.90
2018-07-01T17:10:31.640Z,39.20
2018-07-01T17:12:59.326Z,39.40
2018-07-01T17:15:38.478Z,39.40
2018-07-01T17:18:16.662Z,39.50
2018-07-01T17:23:42.746Z,39.70
2018-07-01T17:26:21.251Z,39.60
2018-07-01T17:29:05.218Z,39.30
2018-07-01T17:31:51.458Z,39.60
2018-07-01T17:34:31.892Z,39.50
2018-07-01T17:37:12.694Z,40.00
2018-07-01T17:39:54.275Z,39.20
2018-07-01T17:42:34.403Z,39.60
2018-07-01T17:45:18.937Z,39.90
2018-07-01T17:48:00.057Z,40.00
2018-07-01T17:50:41.417Z,41.00
2018-07-01T17:53:23.935Z,41.00
2018-07-01T17:56:03.247Z,41.10
2018-07-01T17:58:44.486Z,41.40
2018-07-01T18:01:24.545Z,40.80
2018-07-01T18:04:06.350Z,40.50
2018-07-01T18:09:28.361Z,40.80
2018-07-01T18:12:07.830Z,40.80
2018-07-01T18:14:50.666Z,40.80
2018-07-01T18:17:28.238Z,40.70
2018-07-01T18:23:18.236Z,40.80
2018-07-01T18:25:36.844Z,41.70
2018-07-01T18:28:30.185Z,41.20
2018-07-01T18:31:00.466Z,41.10
2018-07-01T18:33:38.774Z,41.50
2018-07-01T18:36:20.193Z,41.50
2018-07-01T18:39:00.602Z,41.90
2018-07-01T18:41:41.703Z,41.80
2018-07-01T18:44:23.561Z,41.40
2018-07-01T18:47:03.640Z,41.70
2018-07-01T18:49:44.757Z,42.50
2018-07-01T18:52:25.773Z,42.40
2018-07-01T18:55:04.442Z,41.80
2018-07-01T18:57:44.313Z,42.20
2018-07-01T19:00:28.231Z,41.50
2018-07-01T19:03:10.905Z,41.40
2018-07-01T19:05:53.163Z,41.70
2018-07-01T19:08:34.068Z,41.50
2018-07-01T19:11:16.584Z,41.40
2018-07-01T19:16:44.094Z,41.80
2018-07-01T19:19:25.735Z,42.10
2018-07-01T19:21:53.632Z,42.30
2018-07-01T19:24:20.517Z,42.20
2018-07-01T19:26:48.197Z,42.40
2018-07-01T19:29:15.266Z,42.40
2018-07-01T19:31:42.219Z,42.40
2018-07-01T19:34:20.909Z,42.50
2018-07-01T19:36:47.901Z,42.90
2018-07-01T19:39:14.793Z,42.90
2018-07-01T19:41:42.457Z,42.90
2018-07-01T19:44:12.527Z,43.40
2018-07-01T19:46:54.420Z,42.70
2018-07-01T19:49:35.511Z,43.10
2018-07-01T19:52:04.824Z,43.10
2018-07-01T19:54:31.729Z,43.20
2018-07-01T19:56:58.755Z,43.20
2018-07-01T19:59:27.054Z,43.50
2018-07-01T20:01:54.057Z,43.40
2018-07-01T20:04:20.993Z,43.40
2018-07-01T20:06:47.938Z,43.70
2018-07-01T20:09:14.812Z,43.80
2018-07-01T20:11:42.556Z,43.90
2018-07-01T20:14:16.177Z,43.90
2018-07-01T20:16:48.931Z,44.00
2018-07-01T20:19:29.848Z,44.10
2018-07-01T20:22:12.469Z,44.20
2018-07-01T20:24:40.369Z,44.00
2018-07-01T20:27:07.327Z,44.20
2018-07-01T20:29:34.205Z,44.20
2018-07-01T20:32:01.137Z,44.50
2018-07-01T20:34:28.016Z,44.50
2018-07-01T20:36:59.162Z,44.70
2018-07-01T20:42:24.058Z,44.80
2018-07-01T20:45:07.242Z,45.30
2018-07-01T20:53:05.171Z,45.20
2018-07-01T20:55:32.061Z,45.70
2018-07-01T20:57:59.724Z,46.20
2018-07-01T21:00:31.857Z,46.10
2018-07-01T21:02:59.372Z,46.60
2018-07-01T21:05:37.365Z,46.60
2018-07-01T21:08:05.906Z,46.70
2018-07-01T21:10:38.143Z,46.80
2018-07-01T21:13:06.052Z,47.10
2018-07-01T21:15:42.918Z,47.10
2018-07-01T21:18:10.489Z,47.10
2018-07-01T21:20:38.931Z,47.00
2018-07-01T21:23:13.014Z,47.30
2018-07-01T21:25:51.937Z,47.40
2018-07-01T21:28:35.012Z,47.40
2018-07-01T21:31:16.894Z,47.70
2018-07-01T21:33:57.565Z,47.70
2018-07-01T21:39:26.399Z,47.80
2018-07-01T21:42:07.256Z,47.90
2018-07-01T21:44:37.001Z,47.90
2018-07-01T21:47:05.336Z,47.80
2018-07-01T21:49:32.246Z,47.80
2018-07-01T21:52:15.627Z,47.80
2018-07-01T22:00:25.150Z,48.00
2018-07-01T22:03:04.696Z,47.90
2018-07-01T22:05:46.581Z,48.00
2018-07-01T22:08:28.637Z,48.10
2018-07-01T22:10:57.028Z,48.10
2018-07-01T22:13:27.523Z,48.10
2018-07-01T22:16:14.013Z,48.40
2018-07-01T22:18:53.940Z,48.50
2018-07-01T22:21:35.824Z,48.60
2018-07-01T22:24:17.387Z,48.70
2018-07-01T22:27:00.663Z,48.80
2018-07-01T22:32:13.782Z,48.90
2018-07-01T22:34:40.656Z,49.00
2018-07-01T22:37:07.627Z,49.10
2018-07-01T22:39:47.692Z,49.20
2018-07-01T22:42:29.585Z,49.20
2018-07-01T22:44:57.368Z,49.30
2018-07-01T22:47:24.340Z,49.50
2018-07-01T22:49:51.238Z,49.70
2018-07-01T22:52:26.305Z,49.70
2018-07-01T22:54:53.204Z,49.80
2018-07-01T22:57:20.204Z,50.00
2018-07-01T22:59:47.105Z,50.10
2018-07-01T23:02:46.373Z,50.30
2018-07-01T23:05:27.966Z,50.20
2018-07-01T23:08:09.724Z,50.40
2018-07-01T23:10:50.140Z,50.60
2018-07-01T23:13:17.942Z,50.80
2018-07-01T23:15:44.854Z,50.90
2018-07-01T23:18:12.558Z,51.00
2018-07-01T23:20:39.504Z,51.00
2018-07-01T23:23:06.480Z,51.20
2018-07-01T23:25:34.168Z,51.30
2018-07-01T23:28:01.894Z,51.60
2018-07-01T23:30:28.766Z,51.60
2018-07-01T23:32:55.665Z,51.60
2018-07-01T23:35:22.625Z,51.80
2018-07-01T23:37:49.515Z,51.90
2018-07-01T23:40:16.508Z,52.00
2018-07-01T23:42:43.404Z,52.10
2018-07-01T23:45:10.408Z,52.20
2018-07-01T23:47:37.308Z,52.20
2018-07-01T23:50:05.062Z,52.10
2018-07-01T23:52:31.981Z,52.60
2018-07-01T23:54:58.944Z,52.50
2018-07-01T23:57:25.831Z,52.60
2018-07-01T23:59:52.797Z,52.60
